Time;durP1;ratioP1;P1;durP2;ratioP2;P2;SDS_P1;SDS_P2;PMS_P1;PMS_P2;Temp;Humidity;BMP_temperature;BMP_pressure;BME280_temperature;BME280_humidity;BME280_pressure;Samples;Min_cycle;Max_cycle;Signal;HPM_P1;HPM_P2
2023/08/05 00:00:54;;;;;;;1.67;0.73;;;15.80;99.90;;;;;;6242458;23;20405;-84
2023/08/05 00:03:20;;;;;;;2.10;0.90;;;15.80;99.90;;;;;;6246098;23;20505;-84
2023/08/05 00:05:45;;;;;;;0.80;0.60;;;15.70;99.90;;;;;;6246242;23;20016;-84
2023/08/05 00:08:11;;;;;;;4.15;0.90;;;15.70;99.90;;;;;;6247127;23;20012;-83
2023/08/05 00:10:42;;;;;;;1.00;0.70;;;15.70;99.90;;;;;;6220529;23;20016;-84
2023/08/05 00:13:08;;;;;;;1.48;1.00;;;15.80;99.90;;;;;;6246316;23;20050;-84
2023/08/05 00:15:34;;;;;;;1.38;0.70;;;15.70;99.90;;;;;;6220878;23;20016;-83
2023/08/05 00:17:59;;;;;;;1.42;0.73;;;15.70;99.90;;;;;;6248284;23;20424;-83
2023/08/05 00:20:25;;;;;;;1.55;0.70;;;15.70;99.90;;;;;;6221002;23;20447;-83
2023/08/05 00:22:51;;;;;;;1.17;0.80;;;15.80;99.90;;;;;;6247836;23;20020;-84
2023/08/05 00:25:17;;;;;;;1.80;0.85;;;15.70;99.90;;;;;;6247514;23;20074;-83
2023/08/05 00:27:42;;;;;;;1.50;0.70;;;15.70;99.90;;;;;;6247882;23;20077;-84
2023/08/05 00:30:08;;;;;;;3.30;0.80;;;15.70;99.90;;;;;;6247086;23;20016;-84
2023/08/05 00:32:36;;;;;;;3.50;0.90;;;15.70;99.90;;;;;;6220769;23;20048;-84
2023/08/05 00:35:06;;;;;;;3.15;0.95;;;15.60;99.90;;;;;;6247193;23;20331;-82
2023/08/05 00:37:32;;;;;;;1.70;1.10;;;15.60;99.90;;;;;;6220415;23;20081;-83
2023/08/05 00:39:59;;;;;;;4.78;0.80;;;15.60;99.90;;;;;;6220678;23;20443;-83
2023/08/05 00:42:30;;;;;;;1.70;0.80;;;15.60;99.90;;;;;;6247772;23;20020;-84
2023/08/05 00:44:57;;;;;;;1.08;0.75;;;15.60;99.90;;;;;;6247827;23;20013;-82
2023/08/05 00:47:23;;;;;;;2.88;0.80;;;15.50;99.90;;;;;;6220785;23;20016;-84
2023/08/05 00:49:53;;;;;;;2.00;0.77;;;15.60;99.90;;;;;;6247792;23;20025;-84
2023/08/05 00:52:21;;;;;;;1.80;0.90;;;15.50;99.90;;;;;;6247599;23;20016;-83
2023/08/05 00:54:48;;;;;;;2.67;1.00;;;15.50;99.90;;;;;;6220661;23;20019;-84
2023/08/05 00:57:14;;;;;;;1.85;1.20;;;15.50;99.90;;;;;;6220606;23;20099;-84
2023/08/05 00:59:39;;;;;;;1.50;0.90;;;15.50;99.90;;;;;;6219563;23;20047;-84
2023/08/05 01:02:06;;;;;;;1.25;0.90;;;15.50;99.90;;;;;;6220505;23;20489;-83
2023/08/05 01:04:34;;;;;;;2.55;0.88;;;15.40;99.90;;;;;;6247049;23;20470;-84
2023/08/05 01:07:00;;;;;;;3.35;1.10;;;15.50;99.90;;;;;;6220196;23;20553;-83
2023/08/05 01:09:26;;;;;;;3.72;1.30;;;15.40;99.90;;;;;;6195137;23;20028;-85
2023/08/05 01:11:53;;;;;;;1.80;0.90;;;15.30;99.90;;;;;;6219947;23;20020;-83
2023/08/05 01:14:18;;;;;;;3.60;1.10;;;15.30;99.90;;;;;;6247315;23;20454;-83
2023/08/05 01:16:44;;;;;;;2.03;0.90;;;15.30;99.90;;;;;;6247489;23;20012;-83
2023/08/05 01:19:20;;;;;;;1.55;0.90;;;15.30;99.90;;;;;;6194823;23;20020;-83
2023/08/05 01:22:36;;;;;;;4.10;1.13;;;15.30;99.90;;;;;;6220023;23;20016;-83
2023/08/05 01:25:10;;;;;;;3.35;1.05;;;15.20;99.90;;;;;;6209322;23;20067;-84
2023/08/05 01:27:38;;;;;;;1.52;0.90;;;15.20;99.90;;;;;;6158700;23;20021;-84
2023/08/05 01:30:04;;;;;;;1.65;0.80;;;15.20;99.90;;;;;;6182951;23;20060;-84
2023/08/05 01:32:32;;;;;;;2.40;1.00;;;15.20;99.90;;;;;;6183622;23;20084;-83
2023/08/05 01:34:58;;;;;;;2.92;1.10;;;15.10;99.90;;;;;;6183962;23;20025;-85
2023/08/05 01:37:24;;;;;;;1.90;1.00;;;15.10;99.90;;;;;;6183891;23;20419;-83
2023/08/05 01:39:49;;;;;;;2.05;0.85;;;15.10;99.90;;;;;;6158711;23;20024;-83
2023/08/05 01:42:15;;;;;;;1.80;0.70;;;15.10;99.90;;;;;;6183495;23;20051;-83
2023/08/05 01:44:41;;;;;;;1.80;0.80;;;15.10;99.90;;;;;;6184047;23;20032;-84
2023/08/05 01:47:06;;;;;;;1.30;0.60;;;15.00;99.90;;;;;;6183646;23;20084;-84
2023/08/05 01:49:32;;;;;;;2.28;0.75;;;15.00;99.90;;;;;;6158335;23;20037;-82
2023/08/05 01:51:58;;;;;;;3.03;1.30;;;15.00;99.90;;;;;;6183469;23;20017;-84
2023/08/05 01:54:23;;;;;;;6.00;2.25;;;15.00;99.90;;;;;;6183627;23;20024;-84
2023/08/05 01:56:49;;;;;;;1.95;0.73;;;15.30;99.90;;;;;;6183675;23;20020;-83
2023/08/05 01:59:15;;;;;;;2.95;1.00;;;15.00;99.90;;;;;;6187445;23;20013;-83
2023/08/05 02:01:47;;;;;;;1.20;0.80;;;15.00;99.90;;;;;;6246698;23;20366;-84
2023/08/05 02:04:13;;;;;;;2.33;1.00;;;14.90;99.90;;;;;;6245547;23;20016;-83
2023/08/05 02:06:40;;;;;;;2.33;0.88;;;14.90;99.90;;;;;;6194753;23;20023;-83
2023/08/05 02:09:05;;;;;;;3.15;1.08;;;14.90;99.90;;;;;;6246942;23;20020;-83
2023/08/05 02:11:31;;;;;;;5.53;1.00;;;15.00;99.90;;;;;;6219492;23;20024;-83
2023/08/05 02:13:57;;;;;;;2.25;1.08;;;15.00;99.90;;;;;;6246203;23;20419;-83
2023/08/05 02:16:23;;;;;;;1.90;0.95;;;14.80;99.90;;;;;;6219434;23;20057;-83
2023/08/05 02:18:52;;;;;;;1.67;1.00;;;14.70;99.90;;;;;;6219506;23;20012;-83
2023/08/05 02:21:17;;;;;;;2.53;0.90;;;14.70;99.90;;;;;;6246605;23;20016;-83
2023/08/05 02:23:43;;;;;;;2.50;1.00;;;14.70;99.90;;;;;;6246659;23;20012;-83
2023/08/05 02:26:09;;;;;;;1.35;0.95;;;14.70;99.90;;;;;;6220022;23;20061;-83
2023/08/05 02:28:38;;;;;;;5.63;2.53;;;14.70;99.90;;;;;;6219686;23;20031;-84
2023/08/05 02:31:04;;;;;;;3.38;1.23;;;14.50;99.90;;;;;;6245971;23;20078;-83
2023/08/05 02:33:29;;;;;;;2.42;0.98;;;14.50;99.90;;;;;;6219401;23;20343;-83
2023/08/05 02:36:01;;;;;;;1.48;0.80;;;14.40;99.90;;;;;;6219299;23;20058;-83
2023/08/05 02:38:27;;;;;;;1.90;1.13;;;14.40;99.90;;;;;;6246750;23;20075;-84
2023/08/05 02:40:53;;;;;;;3.22;0.90;;;14.40;99.90;;;;;;6218996;23;20024;-84
2023/08/05 02:43:19;;;;;;;2.88;1.10;;;14.30;99.90;;;;;;6219452;23;20047;-84
2023/08/05 02:45:53;;;;;;;1.88;0.98;;;14.30;99.90;;;;;;6246366;23;20012;-83
2023/08/05 02:48:18;;;;;;;3.65;1.15;;;14.30;99.90;;;;;;6219349;23;20347;-84
2023/08/05 02:50:44;;;;;;;2.33;1.30;;;14.30;99.90;;;;;;6245989;23;20051;-83
2023/08/05 02:53:10;;;;;;;1.73;0.95;;;14.30;99.90;;;;;;6219268;23;20011;-84
2023/08/05 02:55:35;;;;;;;3.03;1.20;;;14.30;99.90;;;;;;6246545;23;20020;-83
2023/08/05 02:58:01;;;;;;;3.22;0.98;;;14.20;99.90;;;;;;6245843;23;20016;-84
2023/08/05 03:00:27;;;;;;;4.60;1.65;;;14.30;99.90;;;;;;6246399;23;20017;-84
2023/08/05 03:02:52;;;;;;;2.83;1.13;;;14.70;99.90;;;;;;6245994;23;20451;-83
2023/08/05 03:05:18;;;;;;;4.00;1.20;;;14.20;99.90;;;;;;6218571;23;20012;-83
2023/08/05 03:07:44;;;;;;;2.60;1.20;;;14.20;99.90;;;;;;6246413;23;20016;-83
2023/08/05 03:10:09;;;;;;;3.00;1.10;;;14.20;99.90;;;;;;6194099;23;20024;-83
2023/08/05 03:12:35;;;;;;;2.80;1.10;;;14.80;99.90;;;;;;6246361;23;20016;-84
2023/08/05 03:15:03;;;;;;;1.38;0.90;;;14.20;99.90;;;;;;6246395;23;20023;-84
2023/08/05 03:17:29;;;;;;;1.50;0.80;;;14.20;99.90;;;;;;6246036;23;20339;-85
2023/08/05 03:19:54;;;;;;;1.75;0.85;;;14.20;99.90;;;;;;6245989;23;20022;-83
2023/08/05 03:22:20;;;;;;;1.63;0.95;;;14.30;99.90;;;;;;6246385;23;20054;-83
2023/08/05 03:24:46;;;;;;;2.72;1.00;;;14.30;99.90;;;;;;6246155;23;20427;-83
2023/08/05 03:27:11;;;;;;;2.10;0.80;;;14.30;99.90;;;;;;6246311;23;20020;-84
2023/08/05 03:29:37;;;;;;;4.40;1.20;;;14.40;99.90;;;;;;6246017;23;20011;-83
2023/08/05 03:32:03;;;;;;;1.77;0.90;;;14.30;99.90;;;;;;6246445;23;20047;-84
2023/08/05 03:34:29;;;;;;;2.10;0.77;;;14.30;99.90;;;;;;6219024;23;20016;-83
2023/08/05 03:36:55;;;;;;;0.95;0.60;;;14.30;99.90;;;;;;6246000;23;20020;-83
2023/08/05 03:39:21;;;;;;;1.15;0.75;;;14.30;99.90;;;;;;6246248;23;20035;-83
2023/08/05 03:41:47;;;;;;;1.40;0.77;;;14.30;99.90;;;;;;6219544;23;20043;-83
2023/08/05 03:44:13;;;;;;;2.30;0.70;;;14.30;99.90;;;;;;6196149;23;20016;-83
2023/08/05 03:46:39;;;;;;;1.67;0.68;;;14.30;99.90;;;;;;6248310;23;20027;-84
2023/08/05 03:49:05;;;;;;;1.90;0.80;;;14.30;99.90;;;;;;6221060;23;20030;-84
2023/08/05 03:51:31;;;;;;;1.13;0.70;;;14.30;99.90;;;;;;6248038;23;20016;-83
2023/08/05 03:53:56;;;;;;;3.88;1.00;;;14.30;99.90;;;;;;6221349;23;20070;-85
2023/08/05 03:56:26;;;;;;;2.40;1.10;;;14.30;99.90;;;;;;6247833;23;20087;-84
2023/08/05 03:58:54;;;;;;;4.10;1.13;;;14.40;99.90;;;;;;6247616;23;20016;-83
2023/08/05 04:01:21;;;;;;;2.55;1.02;;;14.20;99.90;;;;;;6220325;23;20443;-84
2023/08/05 04:03:51;;;;;;;2.60;1.10;;;14.40;99.90;;;;;;6248043;23;20012;-85
2023/08/05 04:06:20;;;;;;;1.75;0.77;;;14.20;99.90;;;;;;6220760;23;20351;-83
2023/08/05 04:08:48;;;;;;;2.65;1.10;;;14.30;99.90;;;;;;6220656;23;20016;-83
2023/08/05 04:11:14;;;;;;;1.48;0.80;;;14.30;99.90;;;;;;6220628;23;20020;-84
2023/08/05 04:13:40;;;;;;;2.05;1.00;;;14.30;99.90;;;;;;6220668;23;20061;-83
2023/08/05 04:16:08;;;;;;;1.17;0.80;;;14.30;99.90;;;;;;6247564;23;20016;-84
2023/08/05 04:18:36;;;;;;;3.45;0.68;;;14.30;99.90;;;;;;6196490;23;20019;-84
2023/08/05 04:21:05;;;;;;;2.00;0.70;;;14.20;99.90;;;;;;6248068;23;20016;-84
2023/08/05 04:23:34;;;;;;;2.15;0.70;;;14.20;99.90;;;;;;6220772;23;20020;-84
2023/08/05 04:26:01;;;;;;;2.28;0.80;;;14.30;99.90;;;;;;6247792;23;20052;-83
2023/08/05 04:28:27;;;;;;;1.38;0.70;;;14.30;99.90;;;;;;6247519;23;20039;-83
2023/08/05 04:30:53;;;;;;;3.85;0.70;;;14.30;99.90;;;;;;6247366;23;20462;-84
2023/08/05 04:33:19;;;;;;;1.13;0.70;;;14.60;99.90;;;;;;6247569;23;20043;-84
2023/08/05 04:35:47;;;;;;;1.60;0.68;;;14.30;99.90;;;;;;6220401;23;20027;-84
2023/08/05 04:38:14;;;;;;;3.17;0.73;;;14.30;99.90;;;;;;6221334;23;20016;-84
2023/08/05 04:40:40;;;;;;;0.95;0.52;;;14.30;99.90;;;;;;6247567;23;20070;-84
2023/08/05 04:43:05;;;;;;;0.90;0.60;;;14.30;99.90;;;;;;6220584;23;20447;-85
2023/08/05 04:45:31;;;;;;;1.00;0.70;;;14.30;99.90;;;;;;6220368;23;20023;-85
2023/08/05 04:47:57;;;;;;;0.65;0.50;;;14.20;99.90;;;;;;6220218;23;20016;-84
2023/08/05 04:50:22;;;;;;;1.42;0.60;;;14.20;99.90;;;;;;6247132;23;20074;-84
2023/08/05 04:52:48;;;;;;;2.05;0.70;;;14.30;99.90;;;;;;6247146;23;20042;-84
2023/08/05 04:55:17;;;;;;;2.17;0.60;;;14.30;99.90;;;;;;6247547;23;20345;-84
2023/08/05 04:57:43;;;;;;;1.23;0.60;;;14.20;99.90;;;;;;6247259;23;20465;-84
2023/08/05 05:00:10;;;;;;;1.58;0.80;;;14.30;99.90;;;;;;6194785;23;20020;-83
2023/08/05 05:02:39;;;;;;;1.10;0.80;;;14.30;99.90;;;;;;6247110;23;20062;-83
2023/08/05 05:05:07;;;;;;;2.53;0.68;;;14.30;99.90;;;;;;6220084;23;20012;-83
2023/08/05 05:07:33;;;;;;;1.70;0.60;;;14.40;99.90;;;;;;6220559;23;20055;-83
2023/08/05 05:09:59;;;;;;;2.60;0.80;;;14.40;99.90;;;;;;6247013;23;20481;-84
2023/08/05 05:12:25;;;;;;;3.60;1.05;;;14.50;99.90;;;;;;6247277;23;20140;-83
2023/08/05 05:14:51;;;;;;;1.63;0.70;;;14.50;99.90;;;;;;6247396;23;20067;-82
2023/08/05 05:17:17;;;;;;;1.58;0.82;;;14.90;99.90;;;;;;6247018;23;20020;-84
2023/08/05 05:19:43;;;;;;;4.43;0.68;;;14.70;99.90;;;;;;6247369;23;20343;-83
2023/08/05 05:22:10;;;;;;;0.80;0.70;;;14.80;99.90;;;;;;6220987;23;20154;-83
2023/08/05 05:24:35;;;;;;;1.05;0.75;;;14.90;99.90;;;;;;6219720;23;20016;-83
2023/08/05 05:27:01;;;;;;;1.60;0.60;;;15.00;99.90;;;;;;6220642;23;20317;-83
2023/08/05 05:29:30;;;;;;;1.70;0.77;;;15.10;99.90;;;;;;6220181;23;20339;-83
2023/08/05 05:31:56;;;;;;;1.60;0.80;;;15.20;99.90;;;;;;6246841;23;20020;-83
2023/08/05 05:34:21;;;;;;;3.20;0.82;;;15.40;99.90;;;;;;6219760;23;20347;-83
2023/08/05 05:36:47;;;;;;;1.92;0.90;;;15.40;99.90;;;;;;6220218;23;20023;-83
2023/08/05 05:39:13;;;;;;;1.58;1.00;;;15.50;99.90;;;;;;6246705;23;20052;-84
2023/08/05 05:41:38;;;;;;;2.72;0.82;;;15.60;99.90;;;;;;6220414;23;20016;-83
2023/08/05 05:44:04;;;;;;;0.80;0.60;;;15.60;99.90;;;;;;6219651;23;20020;-83
2023/08/05 05:46:33;;;;;;;2.33;0.90;;;15.70;99.90;;;;;;6219934;23;20047;-83
2023/08/05 05:48:59;;;;;;;2.50;0.70;;;15.80;99.90;;;;;;6246913;23;20047;-84
2023/08/05 05:51:25;;;;;;;3.70;0.93;;;15.90;99.90;;;;;;6219877;23;20016;-85
2023/08/05 05:53:55;;;;;;;1.35;0.80;;;16.00;99.90;;;;;;6247027;23;20023;-84
2023/08/05 05:56:21;;;;;;;1.33;0.70;;;16.00;99.90;;;;;;6246759;23;20020;-84
2023/08/05 05:58:47;;;;;;;4.32;0.90;;;16.10;99.90;;;;;;6219426;23;20461;-84
2023/08/05 06:01:13;;;;;;;3.30;0.90;;;16.20;99.90;;;;;;6219952;23;20018;-83
2023/08/05 06:03:40;;;;;;;2.28;1.08;;;16.10;99.90;;;;;;6246969;23;20051;-84
2023/08/05 06:06:06;;;;;;;1.10;0.60;;;16.10;99.90;;;;;;6194030;23;20477;-84
2023/08/05 06:08:31;;;;;;;3.30;0.80;;;16.10;99.90;;;;;;6246967;23;20017;-84
2023/08/05 06:11:04;;;;;;;1.83;0.70;;;16.10;99.90;;;;;;6219758;23;20093;-83
2023/08/05 06:13:30;;;;;;;1.58;0.75;;;16.10;99.90;;;;;;6246841;23;20016;-83
2023/08/05 06:15:56;;;;;;;1.30;0.52;;;16.20;99.90;;;;;;6246804;23;20020;-83
2023/08/05 06:18:22;;;;;;;1.35;0.73;;;16.30;99.90;;;;;;6219161;23;20393;-83
2023/08/05 06:20:48;;;;;;;2.10;0.60;;;16.30;99.90;;;;;;6246364;23;20023;-83
2023/08/05 06:23:14;;;;;;;2.40;0.93;;;16.30;99.90;;;;;;6246783;23;20012;-83
2023/08/05 06:25:41;;;;;;;2.65;0.70;;;16.30;99.90;;;;;;6194589;23;20473;-83
2023/08/05 06:28:06;;;;;;;1.67;0.80;;;16.30;99.90;;;;;;6219254;23;20020;-83
2023/08/05 06:30:33;;;;;;;2.47;0.77;;;16.40;99.90;;;;;;6246372;23;20102;-83
2023/08/05 06:33:00;;;;;;;1.70;0.73;;;16.60;99.90;;;;;;6246129;23;20020;-83
2023/08/05 06:35:25;;;;;;;1.63;0.70;;;16.70;99.90;;;;;;6219231;23;20466;-83
2023/08/05 06:37:51;;;;;;;1.80;0.63;;;16.90;99.90;;;;;;6246339;23;20101;-83
2023/08/05 06:40:17;;;;;;;1.55;0.60;;;17.10;99.90;;;;;;6219345;23;20439;-83
2023/08/05 06:42:43;;;;;;;1.13;0.68;;;17.30;99.90;;;;;;6246814;23;20019;-83
2023/08/05 06:45:10;;;;;;;2.15;0.70;;;17.40;99.90;;;;;;6219340;23;20435;-83
2023/08/05 06:47:35;;;;;;;1.13;0.70;;;17.50;99.90;;;;;;6246555;23;20065;-83
2023/08/05 06:50:06;;;;;;;0.95;0.60;;;17.60;99.90;;;;;;6217559;23;20474;-83
2023/08/05 06:52:32;;;;;;;3.03;0.60;;;17.80;99.90;;;;;;6245825;23;20027;-83
2023/08/05 06:55:00;;;;;;;3.10;0.60;;;17.80;99.90;;;;;;6246060;23;20016;-83
2023/08/05 06:57:26;;;;;;;1.33;0.47;;;17.90;99.90;;;;;;6246196;23;20022;-83
2023/08/05 06:59:52;;;;;;;1.60;0.60;;;18.00;99.90;;;;;;6245660;23;20091;-84
2023/08/05 07:02:21;;;;;;;1.13;0.45;;;18.10;99.90;;;;;;6194114;23;20105;-90
2023/08/05 07:04:49;;;;;;;1.30;0.50;;;18.10;99.90;;;;;;6216381;22;20016;-90
2023/08/05 07:07:19;;;;;;;1.42;0.52;;;18.20;99.90;;;;;;6219382;23;20450;-87
2023/08/05 07:09:45;;;;;;;2.05;0.47;;;18.30;99.90;;;;;;6246960;23;20328;-91
2023/08/05 07:12:11;;;;;;;1.65;0.50;;;18.40;99.90;;;;;;6220197;23;20046;-89
2023/08/05 07:14:38;;;;;;;0.80;0.50;;;18.50;99.90;;;;;;6194756;23;20023;-90
2023/08/05 07:17:04;;;;;;;2.65;1.00;;;18.50;99.90;;;;;;6220206;23;20016;-90
2023/08/05 07:19:33;;;;;;;1.67;0.60;;;18.60;99.90;;;;;;6220215;23;20343;-89
2023/08/05 07:29:32;;;;;;;2.78;0.60;;;19.00;99.90;;;;;;6246954;23;20093;-90
2023/08/05 07:32:14;;;;;;;1.02;0.60;;;18.90;99.90;;;;;;6195699;23;20039;-89
2023/08/05 07:38:13;;;;;;;0.70;0.50;;;18.90;99.90;;;;;;6221385;23;20054;-89
2023/08/05 07:40:46;;;;;;;1.48;0.60;;;19.00;99.90;;;;;;6222589;23;20407;-87
2023/08/05 07:43:18;;;;;;;0.85;0.47;;;19.10;99.90;;;;;;6223070;23;20008;-87
2023/08/05 07:45:48;;;;;;;1.00;0.45;;;19.20;99.90;;;;;;6224041;23;20048;-89
2023/08/05 07:48:14;;;;;;;2.25;0.60;;;19.30;99.90;;;;;;6197136;23;20024;-89
2023/08/05 07:51:06;;;;;;;1.55;0.50;;;19.30;99.90;;;;;;6223342;23;20016;-88
2023/08/05 07:53:43;;;;;;;1.73;0.50;;;19.30;99.90;;;;;;6221487;23;20016;-90
2023/08/05 07:56:26;;;;;;;1.10;0.60;;;19.40;99.90;;;;;;6222561;23;20015;-88
2023/08/05 07:59:20;;;;;;;0.95;0.47;;;19.40;99.90;;;;;;6162543;22;20024;-91
2023/08/05 08:01:48;;;;;;;1.48;0.55;;;19.30;99.90;;;;;;6191503;23;20070;-92
2023/08/05 08:04:25;;;;;;;1.20;0.60;;;19.40;99.90;;;;;;6167171;23;20020;-93
2023/08/05 08:10:55;;;;;;;1.63;0.50;;;19.40;99.90;;;;;;6219336;23;20119;-90
2023/08/05 08:13:30;;;;;;;0.80;0.43;;;19.60;99.90;;;;;;6222769;23;20028;-91
2023/08/05 08:30:55;;;;;;;1.95;0.68;;;20.20;99.90;;;;;;6011519;23;20024;-91
2023/08/05 08:33:56;;;;;;;1.27;0.38;;;20.30;99.90;;;;;;5988925;23;20027;-90
2023/08/05 08:44:29;;;;;;;1.02;0.40;;;20.20;99.90;;;;;;6044631;23;20111;-92
2023/08/05 08:47:28;;;;;;;1.13;0.40;;;20.10;99.90;;;;;;6179718;22;20024;-91
2023/08/05 08:54:44;;;;;;;0.77;0.38;;;20.20;99.90;;;;;;6219990;23;20027;-90
2023/08/05 08:57:13;;;;;;;1.50;0.50;;;20.20;99.90;;;;;;6190655;23;20478;-93
2023/08/05 08:59:57;;;;;;;1.63;0.50;;;20.20;99.90;;;;;;6190033;23;20044;-90
2023/08/05 09:03:24;;;;;;;;;;;;;;;;;;;;;
2023/08/05 09:09:46;;;;;;;2.03;0.60;;;20.40;99.90;;;;;;6217160;23;20339;-88
2023/08/05 09:12:31;;;;;;;0.68;0.38;;;20.50;99.90;;;;;;6189972;23;20021;-88
2023/08/05 09:15:18;;;;;;;1.45;0.75;;;20.60;99.90;;;;;;6217322;23;20024;-91
2023/08/05 09:18:03;;;;;;;;;;;;;;;;;;;;;
2023/08/05 09:20:51;;;;;;;2.85;0.40;;;21.00;99.90;;;;;;6185811;23;20024;-93
2023/08/05 09:23:43;;;;;;;0.77;0.40;;;21.00;99.90;;;;;;6217134;23;20062;-90
2023/08/05 09:26:42;;;;;;;0.55;0.30;;;21.00;99.90;;;;;;6190711;23;20079;-92
2023/08/05 09:29:31;;;;;;;1.08;0.40;;;20.90;99.90;;;;;;6189896;23;20444;-90
2023/08/05 09:32:15;;;;;;;;;;;;;;;;;;;;;
2023/08/05 09:34:49;;;;;;;0.52;0.50;;;21.00;99.90;;;;;;6121336;23;20093;-87
2023/08/05 09:37:48;;;;;;;0.63;0.50;;;21.00;99.90;;;;;;6125484;23;20018;-91
2023/08/05 09:42:23;;;;;;;0.63;0.30;;;21.00;99.90;;;;;;6100568;23;20020;-92
2023/08/05 09:55:00;;;;;;;0.90;0.30;;;22.00;99.90;;;;;;6030271;23;20018;-90
2023/08/05 09:58:27;;;;;;;0.75;0.43;;;22.10;99.90;;;;;;6038093;23;20075;-91
2023/08/05 10:00:57;;;;;;;1.73;0.50;;;22.40;99.90;;;;;;6067510;23;20099;-90
2023/08/05 10:06:46;;;;;;;2.35;0.50;;;22.80;99.90;;;;;;6155703;23;20044;-90
2023/08/05 10:22:39;;;;;;;;;;;;;;;;;;;;;
2023/08/05 10:30:19;;;;;;;3.35;0.50;;;23.80;99.90;;;;;;6201095;22;20478;-90
2023/08/05 10:41:00;;;;;;;;;;;;;;;;;;;;;
2023/08/05 10:44:30;;;;;;;2.40;0.40;;;24.10;99.90;;;;;;5817777;24;20053;-91
2023/08/05 10:47:10;;;;;;;1.08;0.43;;;24.40;99.90;;;;;;5770748;24;20019;-90
2023/08/05 10:50:14;;;;;;;1.20;0.40;;;24.50;99.90;;;;;;5793981;24;20011;-90
2023/08/05 10:56:35;;;;;;;2.92;0.35;;;24.50;99.90;;;;;;5819789;24;20573;-91
2023/08/05 10:59:23;;;;;;;;;;;;;;;;;;;;;
2023/08/05 11:02:25;;;;;;;1.75;0.40;;;24.30;99.90;;;;;;5795429;24;20013;-91
2023/08/05 11:04:51;;;;;;;1.85;0.82;;;24.30;99.90;;;;;;5817862;24;20073;-88
2023/08/05 11:07:17;;;;;;;1.10;0.40;;;24.30;99.90;;;;;;5795569;24;20072;-90
2023/08/05 11:09:46;;;;;;;1.10;0.40;;;24.30;99.90;;;;;;5806009;24;20071;-86
2023/08/05 11:12:13;;;;;;;1.38;0.40;;;24.60;99.90;;;;;;5853534;24;20116;-85
2023/08/05 11:14:39;;;;;;;1.00;0.35;;;24.70;99.90;;;;;;5957141;23;20447;-86
2023/08/05 11:17:07;;;;;;;0.57;0.20;;;24.50;99.80;;;;;;6123840;23;20041;-86
2023/08/05 11:19:54;;;;;;;1.40;0.40;;;24.30;99.90;;;;;;6104424;23;20018;-88
2023/08/05 11:22:27;;;;;;;0.80;0.30;;;24.20;99.90;;;;;;6120607;23;20094;-92
2023/08/05 11:25:00;;;;;;;0.90;0.50;;;24.20;99.90;;;;;;6218888;23;20023;-87
2023/08/05 11:27:39;;;;;;;0.40;0.30;;;24.50;99.90;;;;;;6194026;23;20016;-87
2023/08/05 11:30:14;;;;;;;0.77;0.40;;;24.70;99.90;;;;;;6246130;23;20415;-87
2023/08/05 11:32:57;;;;;;;1.23;0.40;;;24.80;99.90;;;;;;6245842;23;20051;-87
2023/08/05 11:35:24;;;;;;;0.65;0.45;;;24.70;99.40;;;;;;6219159;23;20451;-86
2023/08/05 11:37:50;;;;;;;1.45;0.47;;;24.80;99.90;;;;;;6245648;23;20020;-87
2023/08/05 11:40:19;;;;;;;0.88;0.45;;;24.80;99.90;;;;;;6245672;23;20016;-91
2023/08/05 11:43:46;;;;;;;1.10;0.47;;;24.90;99.90;;;;;;6219448;23;20019;-93
2023/08/05 11:54:43;;;;;;;1.27;0.60;;;24.60;99.20;;;;;;6210987;23;20025;-87
2023/08/05 11:57:21;;;;;;;1.40;0.50;;;24.50;99.90;;;;;;6188918;23;20021;-86
2023/08/05 11:59:47;;;;;;;1.35;0.50;;;24.40;99.90;;;;;;6215371;23;20030;-87
2023/08/05 12:02:14;;;;;;;2.05;0.50;;;24.50;99.90;;;;;;6189126;23;20352;-86
2023/08/05 12:04:44;;;;;;;2.42;0.60;;;24.50;99.90;;;;;;6217410;23;20016;-88
2023/08/05 12:07:14;;;;;;;0.73;0.50;;;24.50;99.90;;;;;;6215730;23;20360;-88
2023/08/05 12:09:41;;;;;;;1.67;0.60;;;24.60;99.90;;;;;;6191279;23;20016;-86
2023/08/05 12:12:18;;;;;;;1.27;0.50;;;24.50;99.90;;;;;;6217788;23;20020;-90
2023/08/05 12:14:46;;;;;;;0.73;0.47;;;24.30;99.90;;;;;;6217465;23;20383;-90
2023/08/05 12:17:21;;;;;;;1.48;0.50;;;24.10;99.70;;;;;;6217898;23;20113;-89
2023/08/05 12:19:51;;;;;;;0.55;0.40;;;23.80;99.90;;;;;;6190833;23;20017;-89
2023/08/05 12:22:16;;;;;;;1.02;0.50;;;23.70;99.90;;;;;;6190996;23;20017;-88
2023/08/05 12:24:45;;;;;;;0.85;0.43;;;23.60;99.90;;;;;;6217308;23;20063;-89
2023/08/05 12:30:55;;;;;;;1.45;0.50;;;23.20;99.90;;;;;;6207191;22;20448;-94
2023/08/05 12:41:25;;;;;;;1.42;0.55;;;23.20;99.90;;;;;;6227409;22;20107;-84
2023/08/05 12:43:51;;;;;;;2.70;0.60;;;23.00;99.90;;;;;;6247562;23;20032;-87
2023/08/05 12:46:17;;;;;;;1.42;0.70;;;23.00;99.90;;;;;;6247864;23;20078;-87
2023/08/05 12:48:43;;;;;;;0.90;0.80;;;22.80;99.90;;;;;;6220519;23;20024;-86
2023/08/05 12:51:09;;;;;;;0.95;0.50;;;22.70;99.90;;;;;;6247764;23;20157;-85
2023/08/05 12:53:35;;;;;;;1.30;0.60;;;22.50;99.90;;;;;;6220666;23;20060;-87
2023/08/05 12:56:00;;;;;;;2.65;0.63;;;22.40;99.90;;;;;;6220864;23;20070;-85
2023/08/05 13:17:47;;;;;;;2.58;0.80;;;21.70;99.90;;;;;;6154851;23;20029;-85
2023/08/05 13:20:12;;;;;;;1.40;0.90;;;21.40;99.90;;;;;;6154695;23;20020;-84
2023/08/05 13:22:38;;;;;;;1.55;0.95;;;21.30;99.90;;;;;;6154141;23;20017;-85
2023/08/05 13:25:04;;;;;;;1.52;0.80;;;21.30;99.90;;;;;;6105592;23;20017;-82
2023/08/05 13:27:30;;;;;;;5.30;1.10;;;21.20;99.90;;;;;;6129937;23;20025;-83
2023/08/05 13:29:55;;;;;;;2.55;1.17;;;21.10;99.90;;;;;;6127076;23;20018;-85
2023/08/05 13:32:21;;;;;;;2.03;1.17;;;20.90;99.90;;;;;;6129649;23;20112;-83
2023/08/05 13:34:47;;;;;;;4.05;1.70;;;20.80;99.90;;;;;;6155042;23;20049;-84
2023/08/05 13:37:13;;;;;;;2.63;1.85;;;20.70;99.90;;;;;;6130258;23;20021;-87
2023/08/05 13:39:42;;;;;;;2.67;2.10;;;20.50;99.90;;;;;;6153679;23;20025;-84
2023/08/05 13:42:07;;;;;;;3.30;2.13;;;20.40;99.90;;;;;;6154133;23;20021;-85
2023/08/05 13:44:33;;;;;;;4.93;2.58;;;20.20;99.90;;;;;;6154672;23;20096;-83
2023/08/05 13:46:59;;;;;;;5.00;2.83;;;20.10;99.90;;;;;;6129551;23;20021;-83
2023/08/05 13:49:25;;;;;;;6.22;3.05;;;20.10;99.90;;;;;;6156645;23;20018;-86
2023/08/05 13:51:50;;;;;;;5.18;2.63;;;20.00;99.90;;;;;;6216643;23;20020;-84
2023/08/05 13:54:16;;;;;;;4.78;3.17;;;20.00;99.90;;;;;;6189673;23;20467;-84
2023/08/05 13:56:42;;;;;;;3.90;2.95;;;20.00;99.90;;;;;;6189848;23;20017;-85
2023/08/05 13:59:09;;;;;;;3.97;2.75;;;20.00;99.90;;;;;;6216592;23;20059;-83
2023/08/05 14:01:35;;;;;;;4.05;2.67;;;20.00;99.90;;;;;;6216880;23;20043;-85
2023/08/05 14:04:00;;;;;;;5.88;2.83;;;20.00;99.90;;;;;;6190112;23;20451;-85
2023/08/05 14:06:27;;;;;;;4.55;3.20;;;20.00;99.90;;;;;;6190073;23;20035;-82
2023/08/05 14:08:53;;;;;;;4.57;3.30;;;20.00;99.90;;;;;;6188291;23;20084;-83
2023/08/05 14:11:19;;;;;;;4.57;3.17;;;20.00;99.90;;;;;;6215815;23;20051;-84
2023/08/05 14:13:45;;;;;;;5.18;3.00;;;19.90;99.90;;;;;;6216923;23;20013;-83
2023/08/05 14:16:10;;;;;;;3.88;3.00;;;19.90;99.90;;;;;;6216208;23;20321;-82
2023/08/05 14:18:36;;;;;;;4.75;3.25;;;19.90;99.90;;;;;;6216642;23;20017;-83
2023/08/05 14:21:02;;;;;;;4.95;3.00;;;19.90;99.90;;;;;;6189378;23;20016;-83
2023/08/05 14:23:28;;;;;;;6.43;3.03;;;19.80;99.90;;;;;;6189748;23;20032;-82
2023/08/05 14:25:54;;;;;;;4.38;2.83;;;19.90;99.90;;;;;;6216521;23;20436;-84
2023/08/05 14:28:22;;;;;;;3.60;2.92;;;19.80;99.90;;;;;;6191075;23;20016;-85
2023/08/05 14:30:48;;;;;;;3.47;2.35;;;19.90;99.90;;;;;;6216952;23;20017;-86
2023/08/05 14:33:20;;;;;;;3.03;2.08;;;19.90;99.90;;;;;;6216812;23;20100;-82
2023/08/05 14:35:48;;;;;;;5.18;1.90;;;19.90;99.90;;;;;;6216592;23;20024;-83
2023/08/05 14:38:14;;;;;;;2.88;1.33;;;19.90;99.90;;;;;;6216320;23;20096;-84
2023/08/05 14:40:40;;;;;;;4.20;1.23;;;19.90;99.90;;;;;;6189639;23;20025;-82
2023/08/05 14:43:06;;;;;;;1.80;1.20;;;20.00;99.90;;;;;;6216553;23;20016;-82
2023/08/05 14:45:38;;;;;;;2.35;1.50;;;20.00;99.90;;;;;;6189573;23;20096;-83
2023/08/05 14:48:04;;;;;;;3.10;1.27;;;20.00;99.90;;;;;;6189686;23;20024;-83
2023/08/05 14:50:30;;;;;;;3.15;1.50;;;20.00;99.90;;;;;;6189486;23;20024;-82
2023/08/05 14:52:55;;;;;;;4.43;1.85;;;20.00;99.90;;;;;;6216653;23;20056;-84
2023/08/05 14:55:21;;;;;;;2.38;1.80;;;20.00;99.90;;;;;;6216653;23;20336;-82
2023/08/05 14:57:48;;;;;;;2.78;1.70;;;20.00;99.90;;;;;;6190022;23;20412;-82
2023/08/05 15:00:14;;;;;;;2.53;2.13;;;19.90;99.90;;;;;;6190256;23;20446;-82
2023/08/05 15:02:40;;;;;;;3.30;2.60;;;19.90;99.90;;;;;;6189708;23;20017;-84
2023/08/05 15:05:06;;;;;;;3.70;1.73;;;19.90;99.90;;;;;;6216432;23;20021;-84
2023/08/05 15:07:32;;;;;;;0.73;0.60;;;19.70;99.90;;;;;;6215985;23;20332;-83
2023/08/05 15:09:58;;;;;;;1.27;0.70;;;19.40;99.90;;;;;;6215359;23;20021;-81
2023/08/05 15:12:24;;;;;;;0.82;0.50;;;19.10;99.90;;;;;;6216075;23;20074;-82
2023/08/05 15:14:50;;;;;;;1.00;0.57;;;18.90;99.90;;;;;;6216192;23;20087;-81
2023/08/05 15:17:16;;;;;;;0.85;0.50;;;18.70;99.90;;;;;;6215873;23;20024;-83